sensor_id;sensor_type;location;lat;lon;timestamp;P1;durP1;ratioP1;P2;durP2;ratioP2
25049;SDS011;13046;49.814;9.918;2023-02-13T00:00:53;42.53;;;27.38;;
25049;SDS011;13046;49.814;9.918;2023-02-13T00:03:19;44.05;;;27.20;;
25049;SDS011;13046;49.814;9.918;2023-02-13T00:05:45;38.90;;;22.65;;
25049;SDS011;13046;49.814;9.918;2023-02-13T00:08:11;35.20;;;22.00;;
25049;SDS011;13046;49.814;9.918;2023-02-13T00:10:37;75.70;;;40.67;;
25049;SDS011;13046;49.814;9.918;2023-02-13T00:13:03;98.57;;;45.95;;
25049;SDS011;13046;49.814;9.918;2023-02-13T00:15:29;62.00;;;33.10;;
25049;SDS011;13046;49.814;9.918;2023-02-13T00:17:55;88.07;;;39.70;;
25049;SDS011;13046;49.814;9.918;2023-02-13T00:20:21;51.85;;;31.48;;
25049;SDS011;13046;49.814;9.918;2023-02-13T00:22:47;34.92;;;22.48;;
25049;SDS011;13046;49.814;9.918;2023-02-13T00:25:13;57.17;;;30.83;;
25049;SDS011;13046;49.814;9.918;2023-02-13T00:27:39;46.88;;;27.58;;
25049;SDS011;13046;49.814;9.918;2023-02-13T00:30:05;34.15;;;21.42;;
25049;SDS011;13046;49.814;9.918;2023-02-13T00:32:31;33.60;;;22.67;;
25049;SDS011;13046;49.814;9.918;2023-02-13T00:34:58;36.72;;;23.30;;
25049;SDS011;13046;49.814;9.918;2023-02-13T00:37:24;33.97;;;22.35;;
25049;SDS011;13046;49.814;9.918;2023-02-13T00:39:50;32.92;;;20.65;;
25049;SDS011;13046;49.814;9.918;2023-02-13T00:42:17;35.70;;;22.27;;
25049;SDS011;13046;49.814;9.918;2023-02-13T00:44:43;37.10;;;24.42;;
25049;SDS011;13046;49.814;9.918;2023-02-13T00:47:09;38.65;;;23.25;;
25049;SDS011;13046;49.814;9.918;2023-02-13T00:49:38;38.03;;;23.25;;
25049;SDS011;13046;49.814;9.918;2023-02-13T00:52:04;38.33;;;22.95;;
25049;SDS011;13046;49.814;9.918;2023-02-13T00:54:30;40.55;;;21.00;;
25049;SDS011;13046;49.814;9.918;2023-02-13T00:56:56;31.25;;;19.88;;
25049;SDS011;13046;49.814;9.918;2023-02-13T00:59:22;32.40;;;20.17;;
25049;SDS011;13046;49.814;9.918;2023-02-13T01:01:48;32.53;;;18.92;;
25049;SDS011;13046;49.814;9.918;2023-02-13T01:04:14;32.95;;;20.27;;
25049;SDS011;13046;49.814;9.918;2023-02-13T01:06:40;38.10;;;21.88;;
25049;SDS011;13046;49.814;9.918;2023-02-13T01:09:07;39.33;;;23.17;;
25049;SDS011;13046;49.814;9.918;2023-02-13T01:11:34;33.45;;;21.58;;
25049;SDS011;13046;49.814;9.918;2023-02-13T01:14:00;34.40;;;21.90;;
25049;SDS011;13046;49.814;9.918;2023-02-13T01:16:26;31.40;;;19.80;;
25049;SDS011;13046;49.814;9.918;2023-02-13T01:18:52;32.55;;;21.13;;
25049;SDS011;13046;49.814;9.918;2023-02-13T01:21:19;34.28;;;20.60;;
25049;SDS011;13046;49.814;9.918;2023-02-13T01:23:47;35.70;;;20.98;;
25049;SDS011;13046;49.814;9.918;2023-02-13T01:26:20;32.70;;;19.77;;
25049;SDS011;13046;49.814;9.918;2023-02-13T01:28:50;34.30;;;19.50;;
25049;SDS011;13046;49.814;9.918;2023-02-13T01:31:16;33.15;;;21.05;;
25049;SDS011;13046;49.814;9.918;2023-02-13T01:33:42;36.95;;;22.25;;
25049;SDS011;13046;49.814;9.918;2023-02-13T01:36:09;27.80;;;17.75;;
25049;SDS011;13046;49.814;9.918;2023-02-13T01:38:36;37.05;;;21.10;;
25049;SDS011;13046;49.814;9.918;2023-02-13T01:41:02;37.60;;;21.38;;
25049;SDS011;13046;49.814;9.918;2023-02-13T01:43:44;30.50;;;17.83;;
25049;SDS011;13046;49.814;9.918;2023-02-13T01:46:10;32.13;;;20.88;;
25049;SDS011;13046;49.814;9.918;2023-02-13T01:48:36;43.47;;;23.17;;
25049;SDS011;13046;49.814;9.918;2023-02-13T01:51:03;36.00;;;20.45;;
25049;SDS011;13046;49.814;9.918;2023-02-13T01:53:35;33.97;;;20.60;;
25049;SDS011;13046;49.814;9.918;2023-02-13T01:58:52;29.65;;;18.73;;
25049;SDS011;13046;49.814;9.918;2023-02-13T02:01:19;34.00;;;20.40;;
25049;SDS011;13046;49.814;9.918;2023-02-13T02:03:48;32.20;;;20.02;;
25049;SDS011;13046;49.814;9.918;2023-02-13T02:06:21;33.22;;;20.10;;
25049;SDS011;13046;49.814;9.918;2023-02-13T02:08:48;33.60;;;19.63;;
25049;SDS011;13046;49.814;9.918;2023-02-13T02:12:05;35.38;;;20.38;;
25049;SDS011;13046;49.814;9.918;2023-02-13T02:14:05;37.17;;;19.20;;
25049;SDS011;13046;49.814;9.918;2023-02-13T02:16:32;34.42;;;20.42;;
25049;SDS011;13046;49.814;9.918;2023-02-13T02:19:03;36.53;;;21.10;;
25049;SDS011;13046;49.814;9.918;2023-02-13T02:24:13;32.80;;;19.80;;
25049;SDS011;13046;49.814;9.918;2023-02-13T02:26:52;33.58;;;20.38;;
25049;SDS011;13046;49.814;9.918;2023-02-13T02:29:31;33.03;;;20.48;;
25049;SDS011;13046;49.814;9.918;2023-02-13T02:34:50;35.45;;;19.60;;
25049;SDS011;13046;49.814;9.918;2023-02-13T02:43:05;34.25;;;20.63;;
25049;SDS011;13046;49.814;9.918;2023-02-13T02:45:16;30.25;;;20.45;;
25049;SDS011;13046;49.814;9.918;2023-02-13T02:55:55;39.08;;;20.88;;
25049;SDS011;13046;49.814;9.918;2023-02-13T02:58:32;32.65;;;20.27;;
25049;SDS011;13046;49.814;9.918;2023-02-13T03:01:22;34.08;;;21.10;;
25049;SDS011;13046;49.814;9.918;2023-02-13T03:04:11;43.00;;;21.63;;
25049;SDS011;13046;49.814;9.918;2023-02-13T03:06:59;42.55;;;23.92;;
25049;SDS011;13046;49.814;9.918;2023-02-13T03:09:28;47.33;;;25.63;;
25049;SDS011;13046;49.814;9.918;2023-02-13T03:12:16;38.63;;;22.05;;
25049;SDS011;13046;49.814;9.918;2023-02-13T03:15:03;36.80;;;22.10;;
25049;SDS011;13046;49.814;9.918;2023-02-13T03:17:29;44.63;;;22.77;;
25049;SDS011;13046;49.814;9.918;2023-02-13T03:28:55;43.47;;;23.63;;
25049;SDS011;13046;49.814;9.918;2023-02-13T03:34:27;47.30;;;24.90;;
25049;SDS011;13046;49.814;9.918;2023-02-13T03:37:14;44.75;;;22.90;;
25049;SDS011;13046;49.814;9.918;2023-02-13T03:42:36;66.90;;;27.20;;
25049;SDS011;13046;49.814;9.918;2023-02-13T03:47:48;68.60;;;24.42;;
25049;SDS011;13046;49.814;9.918;2023-02-13T03:50:15;87.53;;;28.00;;
25049;SDS011;13046;49.814;9.918;2023-02-13T03:55:13;82.25;;;28.40;;
25049;SDS011;13046;49.814;9.918;2023-02-13T03:58:00;61.63;;;29.00;;
25049;SDS011;13046;49.814;9.918;2023-02-13T04:00:47;80.88;;;27.83;;
25049;SDS011;13046;49.814;9.918;2023-02-13T04:05:41;84.28;;;27.60;;
25049;SDS011;13046;49.814;9.918;2023-02-13T04:08:09;83.55;;;29.20;;
25049;SDS011;13046;49.814;9.918;2023-02-13T04:10:36;96.30;;;27.55;;
25049;SDS011;13046;49.814;9.918;2023-02-13T04:13:09;82.28;;;28.40;;
25049;SDS011;13046;49.814;9.918;2023-02-13T04:15:46;94.28;;;29.00;;
25049;SDS011;13046;49.814;9.918;2023-02-13T04:18:18;103.03;;;28.63;;
25049;SDS011;13046;49.814;9.918;2023-02-13T04:20:44;89.85;;;26.02;;
25049;SDS011;13046;49.814;9.918;2023-02-13T04:23:11;89.47;;;27.25;;
25049;SDS011;13046;49.814;9.918;2023-02-13T04:25:37;95.30;;;29.30;;
25049;SDS011;13046;49.814;9.918;2023-02-13T04:28:03;101.28;;;27.85;;
25049;SDS011;13046;49.814;9.918;2023-02-13T04:30:29;93.10;;;26.98;;
25049;SDS011;13046;49.814;9.918;2023-02-13T04:32:55;92.65;;;26.73;;
25049;SDS011;13046;49.814;9.918;2023-02-13T04:35:21;79.65;;;27.45;;
25049;SDS011;13046;49.814;9.918;2023-02-13T04:37:47;82.55;;;26.13;;
25049;SDS011;13046;49.814;9.918;2023-02-13T04:40:14;88.22;;;27.30;;
25049;SDS011;13046;49.814;9.918;2023-02-13T04:42:40;82.70;;;29.10;;
25049;SDS011;13046;49.814;9.918;2023-02-13T04:45:07;76.70;;;28.27;;
25049;SDS011;13046;49.814;9.918;2023-02-13T04:47:33;72.00;;;25.27;;
25049;SDS011;13046;49.814;9.918;2023-02-13T04:49:59;87.45;;;28.52;;
25049;SDS011;13046;49.814;9.918;2023-02-13T04:52:25;72.18;;;28.00;;
25049;SDS011;13046;49.814;9.918;2023-02-13T04:54:51;100.63;;;26.60;;
25049;SDS011;13046;49.814;9.918;2023-02-13T04:57:18;94.28;;;26.10;;
25049;SDS011;13046;49.814;9.918;2023-02-13T04:59:44;87.40;;;27.75;;
25049;SDS011;13046;49.814;9.918;2023-02-13T05:02:10;85.10;;;26.13;;
25049;SDS011;13046;49.814;9.918;2023-02-13T05:04:36;88.80;;;27.48;;
25049;SDS011;13046;49.814;9.918;2023-02-13T05:07:02;97.32;;;27.20;;
25049;SDS011;13046;49.814;9.918;2023-02-13T05:09:28;98.57;;;26.67;;
25049;SDS011;13046;49.814;9.918;2023-02-13T05:11:54;102.68;;;27.33;;
25049;SDS011;13046;49.814;9.918;2023-02-13T05:14:20;90.60;;;25.58;;
25049;SDS011;13046;49.814;9.918;2023-02-13T05:16:46;60.20;;;24.60;;
25049;SDS011;13046;49.814;9.918;2023-02-13T05:19:14;92.53;;;25.35;;
25049;SDS011;13046;49.814;9.918;2023-02-13T05:21:40;115.25;;;28.75;;
25049;SDS011;13046;49.814;9.918;2023-02-13T05:24:25;80.68;;;24.60;;
25049;SDS011;13046;49.814;9.918;2023-02-13T05:26:51;59.92;;;23.40;;
25049;SDS011;13046;49.814;9.918;2023-02-13T05:29:17;73.43;;;25.00;;
25049;SDS011;13046;49.814;9.918;2023-02-13T05:31:43;72.78;;;24.02;;
25049;SDS011;13046;49.814;9.918;2023-02-13T05:34:09;92.40;;;26.13;;
25049;SDS011;13046;49.814;9.918;2023-02-13T05:36:35;62.97;;;23.92;;
25049;SDS011;13046;49.814;9.918;2023-02-13T05:39:01;97.68;;;26.55;;
25049;SDS011;13046;49.814;9.918;2023-02-13T05:41:27;93.35;;;26.77;;
25049;SDS011;13046;49.814;9.918;2023-02-13T05:43:53;80.22;;;27.45;;
25049;SDS011;13046;49.814;9.918;2023-02-13T05:46:19;66.68;;;25.05;;
25049;SDS011;13046;49.814;9.918;2023-02-13T05:48:45;110.38;;;28.27;;
25049;SDS011;13046;49.814;9.918;2023-02-13T05:51:11;78.30;;;26.55;;
25049;SDS011;13046;49.814;9.918;2023-02-13T05:53:37;90.68;;;24.63;;
25049;SDS011;13046;49.814;9.918;2023-02-13T05:56:04;83.95;;;25.65;;
25049;SDS011;13046;49.814;9.918;2023-02-13T05:58:30;88.88;;;26.90;;
25049;SDS011;13046;49.814;9.918;2023-02-13T06:00:56;94.55;;;28.92;;
25049;SDS011;13046;49.814;9.918;2023-02-13T06:03:23;86.15;;;25.83;;
25049;SDS011;13046;49.814;9.918;2023-02-13T06:05:49;63.25;;;26.40;;
25049;SDS011;13046;49.814;9.918;2023-02-13T06:08:15;64.47;;;27.15;;
25049;SDS011;13046;49.814;9.918;2023-02-13T06:10:42;74.70;;;28.35;;
25049;SDS011;13046;49.814;9.918;2023-02-13T06:13:08;68.78;;;26.83;;
25049;SDS011;13046;49.814;9.918;2023-02-13T06:15:34;85.75;;;27.15;;
25049;SDS011;13046;49.814;9.918;2023-02-13T06:18:00;89.18;;;29.25;;
25049;SDS011;13046;49.814;9.918;2023-02-13T06:20:26;101.57;;;28.25;;
25049;SDS011;13046;49.814;9.918;2023-02-13T06:22:52;120.63;;;41.00;;
25049;SDS011;13046;49.814;9.918;2023-02-13T06:25:18;68.97;;;27.80;;
25049;SDS011;13046;49.814;9.918;2023-02-13T06:27:44;88.97;;;27.38;;
25049;SDS011;13046;49.814;9.918;2023-02-13T06:30:10;74.07;;;25.33;;
25049;SDS011;13046;49.814;9.918;2023-02-13T06:32:36;80.28;;;27.10;;
25049;SDS011;13046;49.814;9.918;2023-02-13T06:35:02;78.72;;;24.98;;
25049;SDS011;13046;49.814;9.918;2023-02-13T06:37:29;81.13;;;24.95;;
25049;SDS011;13046;49.814;9.918;2023-02-13T06:39:55;92.97;;;23.65;;
25049;SDS011;13046;49.814;9.918;2023-02-13T06:42:21;66.53;;;21.77;;
25049;SDS011;13046;49.814;9.918;2023-02-13T06:44:47;85.18;;;23.45;;
25049;SDS011;13046;49.814;9.918;2023-02-13T06:47:13;61.05;;;23.77;;
25049;SDS011;13046;49.814;9.918;2023-02-13T06:49:39;76.35;;;22.08;;
25049;SDS011;13046;49.814;9.918;2023-02-13T06:52:05;90.40;;;22.90;;
25049;SDS011;13046;49.814;9.918;2023-02-13T06:54:31;68.88;;;23.25;;
25049;SDS011;13046;49.814;9.918;2023-02-13T06:56:57;63.70;;;23.48;;
25049;SDS011;13046;49.814;9.918;2023-02-13T06:59:23;62.88;;;23.58;;
25049;SDS011;13046;49.814;9.918;2023-02-13T07:01:49;54.30;;;21.92;;
25049;SDS011;13046;49.814;9.918;2023-02-13T07:04:15;45.92;;;21.45;;
25049;SDS011;13046;49.814;9.918;2023-02-13T07:06:41;48.85;;;20.27;;
25049;SDS011;13046;49.814;9.918;2023-02-13T07:09:07;44.83;;;18.15;;
25049;SDS011;13046;49.814;9.918;2023-02-13T07:11:33;40.10;;;18.23;;
25049;SDS011;13046;49.814;9.918;2023-02-13T07:13:59;43.35;;;20.02;;
25049;SDS011;13046;49.814;9.918;2023-02-13T07:16:25;41.30;;;18.85;;
25049;SDS011;13046;49.814;9.918;2023-02-13T07:18:51;70.80;;;19.15;;
25049;SDS011;13046;49.814;9.918;2023-02-13T07:21:17;69.38;;;20.35;;
25049;SDS011;13046;49.814;9.918;2023-02-13T07:23:43;45.38;;;18.50;;
25049;SDS011;13046;49.814;9.918;2023-02-13T07:26:09;84.38;;;29.38;;
25049;SDS011;13046;49.814;9.918;2023-02-13T07:28:35;61.53;;;24.67;;
25049;SDS011;13046;49.814;9.918;2023-02-13T07:31:04;42.17;;;20.10;;
25049;SDS011;13046;49.814;9.918;2023-02-13T07:33:31;56.67;;;26.70;;
25049;SDS011;13046;49.814;9.918;2023-02-13T07:35:57;47.83;;;22.65;;
25049;SDS011;13046;49.814;9.918;2023-02-13T07:38:23;37.38;;;18.38;;
25049;SDS011;13046;49.814;9.918;2023-02-13T07:40:49;32.13;;;18.35;;
25049;SDS011;13046;49.814;9.918;2023-02-13T07:43:15;47.45;;;17.65;;
25049;SDS011;13046;49.814;9.918;2023-02-13T07:45:41;36.10;;;18.52;;
25049;SDS011;13046;49.814;9.918;2023-02-13T07:48:07;27.92;;;16.50;;
25049;SDS011;13046;49.814;9.918;2023-02-13T07:50:33;46.05;;;17.17;;
25049;SDS011;13046;49.814;9.918;2023-02-13T07:53:00;32.83;;;17.48;;
25049;SDS011;13046;49.814;9.918;2023-02-13T07:55:26;40.03;;;17.13;;
25049;SDS011;13046;49.814;9.918;2023-02-13T07:57:53;60.63;;;22.77;;
25049;SDS011;13046;49.814;9.918;2023-02-13T08:00:19;52.92;;;20.13;;
25049;SDS011;13046;49.814;9.918;2023-02-13T08:02:45;42.92;;;20.38;;
25049;SDS011;13046;49.814;9.918;2023-02-13T08:05:11;59.53;;;24.27;;
25049;SDS011;13046;49.814;9.918;2023-02-13T08:07:37;47.33;;;28.77;;
25049;SDS011;13046;49.814;9.918;2023-02-13T08:10:05;50.40;;;21.08;;
25049;SDS011;13046;49.814;9.918;2023-02-13T08:12:51;45.35;;;24.13;;
25049;SDS011;13046;49.814;9.918;2023-02-13T08:15:17;48.38;;;21.13;;
25049;SDS011;13046;49.814;9.918;2023-02-13T08:17:43;49.45;;;21.38;;
25049;SDS011;13046;49.814;9.918;2023-02-13T08:20:09;86.10;;;23.27;;
25049;SDS011;13046;49.814;9.918;2023-02-13T08:22:35;45.95;;;18.80;;
25049;SDS011;13046;49.814;9.918;2023-02-13T08:25:02;57.70;;;18.83;;
25049;SDS011;13046;49.814;9.918;2023-02-13T08:27:28;54.15;;;18.80;;
25049;SDS011;13046;49.814;9.918;2023-02-13T08:29:55;33.65;;;19.67;;
25049;SDS011;13046;49.814;9.918;2023-02-13T08:32:22;58.28;;;19.02;;
25049;SDS011;13046;49.814;9.918;2023-02-13T08:34:48;30.25;;;15.38;;
25049;SDS011;13046;49.814;9.918;2023-02-13T08:37:14;36.47;;;18.15;;
25049;SDS011;13046;49.814;9.918;2023-02-13T08:39:40;30.85;;;16.08;;
25049;SDS011;13046;49.814;9.918;2023-02-13T08:42:06;65.82;;;18.95;;
25049;SDS011;13046;49.814;9.918;2023-02-13T08:44:32;36.13;;;17.98;;
25049;SDS011;13046;49.814;9.918;2023-02-13T08:46:58;25.75;;;15.20;;
25049;SDS011;13046;49.814;9.918;2023-02-13T08:49:27;42.78;;;17.48;;
25049;SDS011;13046;49.814;9.918;2023-02-13T08:51:54;52.80;;;18.23;;
25049;SDS011;13046;49.814;9.918;2023-02-13T08:54:20;42.63;;;16.23;;
25049;SDS011;13046;49.814;9.918;2023-02-13T08:56:46;39.35;;;19.08;;
25049;SDS011;13046;49.814;9.918;2023-02-13T08:59:12;37.38;;;16.02;;
25049;SDS011;13046;49.814;9.918;2023-02-13T09:01:38;30.52;;;18.05;;
25049;SDS011;13046;49.814;9.918;2023-02-13T09:04:04;29.05;;;14.68;;
25049;SDS011;13046;49.814;9.918;2023-02-13T09:06:30;31.42;;;14.23;;
25049;SDS011;13046;49.814;9.918;2023-02-13T09:08:56;28.73;;;16.35;;
25049;SDS011;13046;49.814;9.918;2023-02-13T09:11:22;31.73;;;15.77;;
25049;SDS011;13046;49.814;9.918;2023-02-13T09:13:48;30.10;;;15.43;;
25049;SDS011;13046;49.814;9.918;2023-02-13T09:16:14;33.75;;;18.63;;
25049;SDS011;13046;49.814;9.918;2023-02-13T09:18:40;36.75;;;21.38;;
25049;SDS011;13046;49.814;9.918;2023-02-13T09:21:07;56.58;;;27.75;;
25049;SDS011;13046;49.814;9.918;2023-02-13T09:23:35;39.50;;;21.75;;
25049;SDS011;13046;49.814;9.918;2023-02-13T09:26:02;44.90;;;18.25;;
25049;SDS011;13046;49.814;9.918;2023-02-13T09:28:29;32.67;;;18.48;;
25049;SDS011;13046;49.814;9.918;2023-02-13T09:30:55;26.45;;;16.45;;
25049;SDS011;13046;49.814;9.918;2023-02-13T09:33:21;26.92;;;16.90;;
25049;SDS011;13046;49.814;9.918;2023-02-13T09:35:47;28.38;;;16.88;;
25049;SDS011;13046;49.814;9.918;2023-02-13T09:38:13;25.27;;;16.08;;
25049;SDS011;13046;49.814;9.918;2023-02-13T09:40:42;24.58;;;15.88;;
25049;SDS011;13046;49.814;9.918;2023-02-13T09:43:12;25.42;;;15.07;;
25049;SDS011;13046;49.814;9.918;2023-02-13T09:45:39;27.67;;;16.13;;
25049;SDS011;13046;49.814;9.918;2023-02-13T09:48:05;26.35;;;16.35;;
25049;SDS011;13046;49.814;9.918;2023-02-13T09:50:31;26.45;;;17.38;;
25049;SDS011;13046;49.814;9.918;2023-02-13T09:52:59;25.60;;;16.73;;
25049;SDS011;13046;49.814;9.918;2023-02-13T09:55:39;32.10;;;18.00;;
25049;SDS011;13046;49.814;9.918;2023-02-13T09:58:18;30.92;;;17.75;;
25049;SDS011;13046;49.814;9.918;2023-02-13T10:00:50;27.05;;;18.00;;
25049;SDS011;13046;49.814;9.918;2023-02-13T10:03:24;29.20;;;16.83;;
25049;SDS011;13046;49.814;9.918;2023-02-13T10:06:01;24.23;;;16.38;;
25049;SDS011;13046;49.814;9.918;2023-02-13T10:14:04;28.83;;;17.98;;
25049;SDS011;13046;49.814;9.918;2023-02-13T10:19:03;28.73;;;19.08;;
25049;SDS011;13046;49.814;9.918;2023-02-13T10:21:35;29.17;;;18.70;;
25049;SDS011;13046;49.814;9.918;2023-02-13T10:24:09;28.23;;;19.58;;
25049;SDS011;13046;49.814;9.918;2023-02-13T10:29:18;32.70;;;18.58;;
25049;SDS011;13046;49.814;9.918;2023-02-13T10:32:07;31.73;;;18.00;;
25049;SDS011;13046;49.814;9.918;2023-02-13T10:34:36;32.20;;;19.90;;
25049;SDS011;13046;49.814;9.918;2023-02-13T10:37:07;33.15;;;20.02;;
25049;SDS011;13046;49.814;9.918;2023-02-13T10:39:36;28.30;;;20.15;;
25049;SDS011;13046;49.814;9.918;2023-02-13T10:50:39;28.65;;;20.40;;
25049;SDS011;13046;49.814;9.918;2023-02-13T10:58:56;29.38;;;18.45;;
25049;SDS011;13046;49.814;9.918;2023-02-13T11:01:56;29.33;;;19.33;;
25049;SDS011;13046;49.814;9.918;2023-02-13T11:04:42;29.40;;;20.00;;
25049;SDS011;13046;49.814;9.918;2023-02-13T11:07:10;30.73;;;20.05;;
25049;SDS011;13046;49.814;9.918;2023-02-13T11:09:48;33.67;;;22.52;;
25049;SDS011;13046;49.814;9.918;2023-02-13T11:15:00;41.92;;;29.35;;
25049;SDS011;13046;49.814;9.918;2023-02-13T11:17:29;36.17;;;24.73;;
25049;SDS011;13046;49.814;9.918;2023-02-13T11:19:57;30.15;;;21.30;;
25049;SDS011;13046;49.814;9.918;2023-02-13T11:25:03;30.90;;;21.77;;
25049;SDS011;13046;49.814;9.918;2023-02-13T11:27:32;28.88;;;21.67;;
25049;SDS011;13046;49.814;9.918;2023-02-13T11:30:03;28.77;;;23.90;;
25049;SDS011;13046;49.814;9.918;2023-02-13T11:32:32;30.85;;;23.67;;
25049;SDS011;13046;49.814;9.918;2023-02-13T11:35:24;25.50;;;20.27;;
25049;SDS011;13046;49.814;9.918;2023-02-13T11:40:39;28.67;;;20.90;;
25049;SDS011;13046;49.814;9.918;2023-02-13T11:45:59;27.83;;;21.92;;
25049;SDS011;13046;49.814;9.918;2023-02-13T11:48:32;27.05;;;20.30;;
25049;SDS011;13046;49.814;9.918;2023-02-13T11:50:59;29.38;;;21.10;;
25049;SDS011;13046;49.814;9.918;2023-02-13T11:53:26;27.13;;;20.60;;
25049;SDS011;13046;49.814;9.918;2023-02-13T11:56:00;28.45;;;21.27;;
25049;SDS011;13046;49.814;9.918;2023-02-13T11:58:34;29.33;;;21.17;;
25049;SDS011;13046;49.814;9.918;2023-02-13T12:06:21;27.40;;;19.90;;
25049;SDS011;13046;49.814;9.918;2023-02-13T12:08:48;29.73;;;21.42;;
25049;SDS011;13046;49.814;9.918;2023-02-13T12:13:56;32.05;;;21.88;;
25049;SDS011;13046;49.814;9.918;2023-02-13T12:16:38;27.13;;;21.65;;
25049;SDS011;13046;49.814;9.918;2023-02-13T12:27:32;26.88;;;19.05;;
25049;SDS011;13046;49.814;9.918;2023-02-13T12:33:09;28.88;;;20.90;;
25049;SDS011;13046;49.814;9.918;2023-02-13T12:35:56;29.23;;;22.10;;
25049;SDS011;13046;49.814;9.918;2023-02-13T12:44:39;31.20;;;25.35;;
25049;SDS011;13046;49.814;9.918;2023-02-13T12:49:44;25.92;;;21.02;;
25049;SDS011;13046;49.814;9.918;2023-02-13T12:55:12;26.40;;;20.95;;
25049;SDS011;13046;49.814;9.918;2023-02-13T12:58:11;28.38;;;22.13;;
25049;SDS011;13046;49.814;9.918;2023-02-13T13:04:07;28.52;;;21.48;;
25049;SDS011;13046;49.814;9.918;2023-02-13T13:09:40;29.17;;;22.33;;
25049;SDS011;13046;49.814;9.918;2023-02-13T13:14:53;101.22;;;62.45;;
25049;SDS011;13046;49.814;9.918;2023-02-13T13:20:34;26.70;;;20.52;;
25049;SDS011;13046;49.814;9.918;2023-02-13T13:28:26;24.13;;;18.52;;
25049;SDS011;13046;49.814;9.918;2023-02-13T13:30:57;32.63;;;25.52;;
25049;SDS011;13046;49.814;9.918;2023-02-13T13:33:23;24.23;;;20.27;;
25049;SDS011;13046;49.814;9.918;2023-02-13T13:41:16;23.38;;;19.58;;
25049;SDS011;13046;49.814;9.918;2023-02-13T13:47:10;23.00;;;18.83;;
25049;SDS011;13046;49.814;9.918;2023-02-13T13:49:54;22.08;;;18.60;;
25049;SDS011;13046;49.814;9.918;2023-02-13T13:52:29;24.33;;;18.70;;
25049;SDS011;13046;49.814;9.918;2023-02-13T13:54:57;21.45;;;17.50;;
25049;SDS011;13046;49.814;9.918;2023-02-13T13:57:25;27.42;;;19.95;;
25049;SDS011;13046;49.814;9.918;2023-02-13T13:59:58;24.00;;;19.42;;
25049;SDS011;13046;49.814;9.918;2023-02-13T14:03:11;27.60;;;21.20;;
25049;SDS011;13046;49.814;9.918;2023-02-13T14:06:01;24.40;;;20.55;;
25049;SDS011;13046;49.814;9.918;2023-02-13T14:11:04;22.25;;;18.90;;
25049;SDS011;13046;49.814;9.918;2023-02-13T14:16:02;22.48;;;17.98;;
25049;SDS011;13046;49.814;9.918;2023-02-13T14:18:29;24.20;;;20.05;;
25049;SDS011;13046;49.814;9.918;2023-02-13T14:20:57;24.23;;;20.02;;
25049;SDS011;13046;49.814;9.918;2023-02-13T14:23:35;24.95;;;18.40;;
25049;SDS011;13046;49.814;9.918;2023-02-13T14:28:53;26.65;;;20.85;;
25049;SDS011;13046;49.814;9.918;2023-02-13T14:36:47;23.48;;;19.33;;
25049;SDS011;13046;49.814;9.918;2023-02-13T14:39:27;25.88;;;20.73;;
25049;SDS011;13046;49.814;9.918;2023-02-13T14:42:00;23.67;;;19.73;;
25049;SDS011;13046;49.814;9.918;2023-02-13T14:44:44;24.38;;;19.83;;
25049;SDS011;13046;49.814;9.918;2023-02-13T14:49:56;25.70;;;21.52;;
25049;SDS011;13046;49.814;9.918;2023-02-13T14:52:27;24.90;;;20.40;;
25049;SDS011;13046;49.814;9.918;2023-02-13T14:55:03;23.50;;;19.67;;
25049;SDS011;13046;49.814;9.918;2023-02-13T14:57:42;25.65;;;19.48;;
25049;SDS011;13046;49.814;9.918;2023-02-13T15:00:20;27.92;;;22.58;;
25049;SDS011;13046;49.814;9.918;2023-02-13T15:02:49;25.70;;;20.25;;
25049;SDS011;13046;49.814;9.918;2023-02-13T15:05:17;28.63;;;21.92;;
25049;SDS011;13046;49.814;9.918;2023-02-13T15:07:45;26.98;;;21.67;;
25049;SDS011;13046;49.814;9.918;2023-02-13T15:10:26;25.15;;;20.85;;
25049;SDS011;13046;49.814;9.918;2023-02-13T15:12:58;29.17;;;20.88;;
25049;SDS011;13046;49.814;9.918;2023-02-13T15:15:25;35.40;;;24.55;;
25049;SDS011;13046;49.814;9.918;2023-02-13T15:17:59;30.52;;;25.90;;
25049;SDS011;13046;49.814;9.918;2023-02-13T15:20:26;28.73;;;22.40;;
25049;SDS011;13046;49.814;9.918;2023-02-13T15:22:53;24.77;;;21.80;;
25049;SDS011;13046;49.814;9.918;2023-02-13T15:25:24;29.35;;;21.15;;
25049;SDS011;13046;49.814;9.918;2023-02-13T15:27:51;24.23;;;20.58;;
25049;SDS011;13046;49.814;9.918;2023-02-13T15:30:19;27.48;;;20.88;;
25049;SDS011;13046;49.814;9.918;2023-02-13T15:32:52;27.13;;;21.98;;
25049;SDS011;13046;49.814;9.918;2023-02-13T15:41:02;27.10;;;22.48;;
25049;SDS011;13046;49.814;9.918;2023-02-13T15:43:33;30.13;;;21.27;;
25049;SDS011;13046;49.814;9.918;2023-02-13T15:46:01;31.73;;;23.20;;
25049;SDS011;13046;49.814;9.918;2023-02-13T15:48:28;30.60;;;22.75;;
25049;SDS011;13046;49.814;9.918;2023-02-13T15:50:55;25.10;;;20.48;;
25049;SDS011;13046;49.814;9.918;2023-02-13T15:53:21;29.23;;;21.77;;
25049;SDS011;13046;49.814;9.918;2023-02-13T15:56:01;32.58;;;23.15;;
25049;SDS011;13046;49.814;9.918;2023-02-13T15:58:29;41.28;;;27.67;;
25049;SDS011;13046;49.814;9.918;2023-02-13T16:00:55;32.55;;;23.67;;
25049;SDS011;13046;49.814;9.918;2023-02-13T16:03:24;50.63;;;34.65;;
25049;SDS011;13046;49.814;9.918;2023-02-13T16:05:51;65.53;;;47.08;;
25049;SDS011;13046;49.814;9.918;2023-02-13T16:08:34;72.38;;;55.15;;
25049;SDS011;13046;49.814;9.918;2023-02-13T16:11:33;35.75;;;27.35;;
25049;SDS011;13046;49.814;9.918;2023-02-13T16:16:19;48.50;;;39.63;;
25049;SDS011;13046;49.814;9.918;2023-02-13T16:18:45;47.67;;;35.78;;
25049;SDS011;13046;49.814;9.918;2023-02-13T16:21:11;41.10;;;28.73;;
25049;SDS011;13046;49.814;9.918;2023-02-13T16:23:37;37.65;;;28.77;;
25049;SDS011;13046;49.814;9.918;2023-02-13T16:26:04;36.90;;;27.38;;
25049;SDS011;13046;49.814;9.918;2023-02-13T16:28:32;37.33;;;28.15;;
25049;SDS011;13046;49.814;9.918;2023-02-13T16:30:59;39.45;;;26.70;;
25049;SDS011;13046;49.814;9.918;2023-02-13T16:33:26;39.47;;;28.08;;
25049;SDS011;13046;49.814;9.918;2023-02-13T16:35:54;35.28;;;26.50;;
25049;SDS011;13046;49.814;9.918;2023-02-13T16:38:25;37.63;;;28.30;;
25049;SDS011;13046;49.814;9.918;2023-02-13T16:40:52;31.50;;;24.77;;
25049;SDS011;13046;49.814;9.918;2023-02-13T16:46:11;30.98;;;22.17;;
25049;SDS011;13046;49.814;9.918;2023-02-13T16:48:37;36.15;;;22.73;;
25049;SDS011;13046;49.814;9.918;2023-02-13T16:51:03;31.13;;;22.38;;
25049;SDS011;13046;49.814;9.918;2023-02-13T16:53:29;29.88;;;20.92;;
25049;SDS011;13046;49.814;9.918;2023-02-13T16:55:56;32.10;;;23.00;;
25049;SDS011;13046;49.814;9.918;2023-02-13T16:58:24;37.33;;;28.98;;
25049;SDS011;13046;49.814;9.918;2023-02-13T17:00:50;33.40;;;25.50;;
25049;SDS011;13046;49.814;9.918;2023-02-13T17:03:16;35.00;;;26.55;;
25049;SDS011;13046;49.814;9.918;2023-02-13T17:05:42;27.75;;;22.65;;
25049;SDS011;13046;49.814;9.918;2023-02-13T17:08:08;29.25;;;23.15;;
25049;SDS011;13046;49.814;9.918;2023-02-13T17:10:35;30.92;;;23.42;;
25049;SDS011;13046;49.814;9.918;2023-02-13T17:15:37;32.90;;;22.98;;
25049;SDS011;13046;49.814;9.918;2023-02-13T17:18:05;29.88;;;22.58;;
25049;SDS011;13046;49.814;9.918;2023-02-13T17:20:32;33.42;;;25.08;;